Time;durP1;ratioP1;P1;durP2;ratioP2;P2;SDS_P1;SDS_P2;PMS_P1;PMS_P2;Temp;Humidity;BMP_temperature;BMP_pressure;BME280_temperature;BME280_humidity;BME280_pressure;Samples;Min_cycle;Max_cycle;Signal;HPM_P1;HPM_P2
2023/01/27 00:01:50;;;;;;;11.52;6.30;;;4.80;99.90;;;;;;5004113;28;20026;-73
2023/01/27 00:04:16;;;;;;;12.30;6.85;;;4.80;99.90;;;;;;5004001;28;20407;-74
2023/01/27 00:06:41;;;;;;;13.90;7.05;;;4.80;99.90;;;;;;5003883;28;20027;-72
2023/01/27 00:09:07;;;;;;;14.82;6.65;;;4.80;99.90;;;;;;5003212;28;20031;-72
2023/01/27 00:14:17;;;;;;;16.38;7.88;;;4.80;99.90;;;;;;5004225;28;20106;-73
2023/01/27 00:16:42;;;;;;;16.13;7.28;;;4.90;99.90;;;;;;5003813;28;20030;-73
2023/01/27 00:19:08;;;;;;;14.00;6.93;;;4.70;99.90;;;;;;5003324;28;20463;-72
2023/01/27 00:24:36;;;;;;;15.05;6.95;;;4.90;99.90;;;;;;5002374;28;20034;-74
2023/01/27 00:27:03;;;;;;;12.07;6.45;;;4.80;99.90;;;;;;5003668;28;20096;-72
2023/01/27 00:29:28;;;;;;;13.10;5.93;;;4.80;99.90;;;;;;5004012;28;20109;-72
2023/01/27 00:34:40;;;;;;;;;;;4.80;99.90;;;;;;5004328;28;20049;-72
2023/01/27 00:37:06;;;;;;;12.32;5.15;;;4.90;99.90;;;;;;5003810;28;19945;-72
2023/01/27 00:39:32;;;;;;;14.80;4.90;;;4.80;99.90;;;;;;5003773;28;20042;-72
2023/01/27 00:41:57;;;;;;;11.15;5.53;;;4.90;99.90;;;;;;5003586;28;20064;-71
2023/01/27 00:44:23;;;;;;;7.13;4.40;;;4.90;99.90;;;;;;5003972;28;20023;-71
2023/01/27 00:46:49;;;;;;;9.70;4.95;;;4.90;99.90;;;;;;5003833;28;20027;-72
2023/01/27 00:49:15;;;;;;;8.13;4.28;;;4.90;99.90;;;;;;5004065;28;20027;-72
2023/01/27 00:51:41;;;;;;;8.70;4.50;;;4.90;99.90;;;;;;5003004;28;20036;-72
2023/01/27 00:54:07;;;;;;;6.90;4.05;;;4.90;99.90;;;;;;5003713;28;20097;-73
2023/01/27 00:56:33;;;;;;;5.97;3.83;;;4.90;99.90;;;;;;5003595;28;20046;-72
2023/01/27 00:58:59;;;;;;;10.23;3.95;;;4.90;99.90;;;;;;5003617;28;20058;-72
2023/01/27 01:01:24;;;;;;;9.32;3.75;;;5.00;99.90;;;;;;5003532;28;20043;-73
2023/01/27 01:03:50;;;;;;;5.43;3.25;;;4.90;99.90;;;;;;5002308;28;20088;-72
2023/01/27 01:06:18;;;;;;;5.90;2.90;;;4.90;99.90;;;;;;5002262;28;20030;-72
2023/01/27 01:08:43;;;;;;;5.47;2.90;;;4.90;99.90;;;;;;5003632;28;20057;-71
2023/01/27 01:11:13;;;;;;;4.85;2.38;;;4.90;99.90;;;;;;5002775;28;20030;-71
2023/01/27 01:13:40;;;;;;;7.43;2.97;;;4.90;99.90;;;;;;5002940;28;20408;-71
2023/01/27 01:16:12;;;;;;;5.90;2.78;;;4.90;99.90;;;;;;5003112;28;20028;-71
2023/01/27 01:18:38;;;;;;;6.32;2.75;;;4.90;99.90;;;;;;5002436;28;20030;-71
2023/01/27 01:21:07;;;;;;;3.75;2.08;;;4.90;99.90;;;;;;5006783;28;20038;-70
2023/01/27 01:23:37;;;;;;;3.08;2.33;;;5.00;99.90;;;;;;5005391;28;20053;-71
2023/01/27 01:26:02;;;;;;;4.13;2.17;;;5.00;99.90;;;;;;5006545;28;20042;-71
2023/01/27 01:28:28;;;;;;;3.70;1.88;;;4.90;99.90;;;;;;5006828;28;20037;-71
2023/01/27 01:30:53;;;;;;;3.28;2.13;;;4.90;99.90;;;;;;5005450;28;20027;-71
2023/01/27 01:33:19;;;;;;;3.92;2.03;;;5.00;99.90;;;;;;5005484;28;20065;-73
2023/01/27 01:35:44;;;;;;;2.90;1.70;;;4.90;99.90;;;;;;5005440;28;20042;-72
2023/01/27 01:38:10;;;;;;;3.78;1.98;;;5.00;99.90;;;;;;5006502;28;20034;-71
2023/01/27 01:40:43;;;;;;;2.70;1.70;;;5.00;99.90;;;;;;5006327;28;20094;-73
2023/01/27 01:43:13;;;;;;;3.08;1.90;;;5.00;99.90;;;;;;5006514;28;20033;-71
2023/01/27 01:45:44;;;;;;;3.10;2.00;;;5.00;99.90;;;;;;5004901;28;20100;-72
2023/01/27 01:48:26;;;;;;;4.28;1.75;;;5.10;99.90;;;;;;5006492;28;20023;-71
2023/01/27 01:51:18;;;;;;;2.63;1.90;;;5.00;99.90;;;;;;5006497;28;20022;-72
2023/01/27 01:53:59;;;;;;;2.88;2.03;;;5.00;99.90;;;;;;5006410;28;20053;-72
2023/01/27 01:56:37;;;;;;;2.40;1.63;;;5.00;99.90;;;;;;5005975;28;20050;-72
2023/01/27 01:59:15;;;;;;;4.97;1.90;;;5.00;99.90;;;;;;5006135;28;20026;-72
2023/01/27 02:01:40;;;;;;;3.22;1.95;;;5.00;99.90;;;;;;5006307;28;20550;-73
2023/01/27 02:04:11;;;;;;;5.25;2.20;;;5.00;99.90;;;;;;5006124;28;20031;-73
2023/01/27 02:06:44;;;;;;;5.30;2.30;;;5.10;99.90;;;;;;5004653;28;20097;-72
2023/01/27 02:09:10;;;;;;;5.80;2.25;;;5.00;99.90;;;;;;5005950;28;20494;-72
2023/01/27 02:11:36;;;;;;;4.55;2.40;;;5.00;99.90;;;;;;5004519;28;20034;-72
2023/01/27 02:14:02;;;;;;;3.50;2.03;;;5.00;99.90;;;;;;5004644;28;20451;-73
2023/01/27 02:16:28;;;;;;;5.60;2.17;;;5.00;99.90;;;;;;5005788;28;20022;-74
2023/01/27 02:18:54;;;;;;;3.63;1.90;;;4.90;99.90;;;;;;5004530;28;20057;-72
2023/01/27 02:21:20;;;;;;;4.20;1.83;;;5.10;99.90;;;;;;5004620;28;20034;-71
2023/01/27 02:23:59;;;;;;;4.15;1.98;;;5.00;99.90;;;;;;5004552;28;20033;-74
2023/01/27 02:26:36;;;;;;;4.60;2.30;;;4.90;99.90;;;;;;5002262;28;20073;-73
2023/01/27 02:29:05;;;;;;;4.13;2.28;;;4.90;99.90;;;;;;4997575;28;20027;-73
2023/01/27 02:31:31;;;;;;;3.58;2.22;;;4.90;99.90;;;;;;4995227;28;20381;-72
2023/01/27 02:34:02;;;;;;;3.13;1.83;;;4.90;99.90;;;;;;4993634;28;20468;-72
2023/01/27 02:36:31;;;;;;;5.18;2.40;;;4.90;99.90;;;;;;4994469;28;20023;-72
2023/01/27 02:39:01;;;;;;;6.25;2.53;;;4.90;99.90;;;;;;4995206;28;20100;-71
2023/01/27 02:41:56;;;;;;;5.45;2.63;;;4.90;99.90;;;;;;4996655;28;20034;-72
2023/01/27 02:44:22;;;;;;;6.05;2.47;;;4.90;99.90;;;;;;4991263;28;20046;-73
2023/01/27 02:46:47;;;;;;;6.07;2.55;;;4.80;99.90;;;;;;4992672;28;20031;-71
2023/01/27 02:49:13;;;;;;;9.00;2.42;;;4.80;99.90;;;;;;4993838;28;20026;-71
2023/01/27 02:51:39;;;;;;;5.45;2.33;;;4.80;99.90;;;;;;4993548;28;20018;-73
2023/01/27 02:54:05;;;;;;;6.50;2.67;;;4.80;99.90;;;;;;5013441;28;20051;-72
2023/01/27 02:56:30;;;;;;;4.80;2.53;;;4.80;99.90;;;;;;4991892;28;20523;-72
2023/01/27 02:58:56;;;;;;;5.38;2.80;;;4.80;99.90;;;;;;4992260;28;20030;-72
2023/01/27 03:01:23;;;;;;;6.30;2.78;;;4.80;99.90;;;;;;4992300;28;20098;-73
2023/01/27 03:03:50;;;;;;;6.10;2.50;;;4.70;99.90;;;;;;4993307;28;20052;-72
2023/01/27 03:06:16;;;;;;;5.80;3.00;;;4.70;99.90;;;;;;4992529;28;20050;-72
2023/01/27 03:08:42;;;;;;;4.00;2.40;;;4.70;99.90;;;;;;4993933;28;20034;-71
2023/01/27 03:11:08;;;;;;;4.57;2.65;;;4.70;99.90;;;;;;4997998;28;20039;-73
2023/01/27 03:13:35;;;;;;;6.20;2.78;;;4.70;99.90;;;;;;4998285;28;20034;-72
2023/01/27 03:18:48;;;;;;;6.93;2.80;;;4.60;99.90;;;;;;4992875;28;20099;-73
2023/01/27 03:21:16;;;;;;;5.40;2.92;;;4.60;99.90;;;;;;4999210;28;20026;-72
2023/01/27 03:23:44;;;;;;;6.57;2.90;;;4.60;99.90;;;;;;4993009;28;20030;-72
2023/01/27 03:26:10;;;;;;;5.70;2.75;;;4.60;99.90;;;;;;4992007;28;20031;-72
2023/01/27 03:28:36;;;;;;;5.85;2.78;;;4.60;99.90;;;;;;4992343;28;20092;-72
2023/01/27 03:31:04;;;;;;;8.40;3.30;;;4.60;99.90;;;;;;4997355;28;20026;-72
2023/01/27 03:33:30;;;;;;;7.40;3.45;;;4.50;99.90;;;;;;4994180;28;20042;-72
2023/01/27 03:46:53;;;;;;;9.02;3.65;;;4.50;99.90;;;;;;4996213;28;20036;-73
2023/01/27 03:49:19;;;;;;;9.45;4.07;;;4.40;99.90;;;;;;4992118;28;20078;-73
2023/01/27 03:51:45;;;;;;;6.47;3.30;;;4.40;99.90;;;;;;4992145;28;20049;-72
2023/01/27 03:54:10;;;;;;;8.27;3.50;;;4.30;99.90;;;;;;4998792;28;20022;-73
2023/01/27 03:56:36;;;;;;;7.18;3.50;;;4.40;99.90;;;;;;4975093;28;1101879;-72
2023/01/27 03:59:01;;;;;;;5.60;3.13;;;4.30;99.90;;;;;;4994639;28;20062;-75
2023/01/27 04:01:27;;;;;;;8.93;3.40;;;4.30;99.90;;;;;;4992225;28;20038;-71
2023/01/27 04:09:38;;;;;;;5.80;3.05;;;4.30;99.90;;;;;;4995593;28;20097;-72
2023/01/27 04:12:05;;;;;;;7.18;3.58;;;4.30;99.90;;;;;;4992909;28;20026;-71
2023/01/27 04:14:40;;;;;;;6.80;3.40;;;4.30;99.90;;;;;;4991619;28;20018;-73
2023/01/27 04:17:15;;;;;;;7.03;3.10;;;4.30;99.90;;;;;;4992344;28;20049;-71
2023/01/27 04:19:41;;;;;;;6.78;3.40;;;4.20;99.90;;;;;;4992676;28;20101;-71
2023/01/27 04:22:07;;;;;;;7.07;3.25;;;4.20;99.90;;;;;;4993385;28;20026;-71
2023/01/27 04:24:33;;;;;;;6.55;3.40;;;4.10;99.90;;;;;;4996886;28;20090;-71
2023/01/27 04:26:59;;;;;;;6.55;3.65;;;4.10;99.90;;;;;;4994462;28;20027;-71
2023/01/27 04:29:31;;;;;;;6.88;3.85;;;4.00;99.90;;;;;;4991991;28;20117;-71
2023/01/27 04:31:57;;;;;;;10.20;3.95;;;4.00;99.90;;;;;;4991875;28;20050;-72
2023/01/27 04:34:24;;;;;;;10.63;3.80;;;4.00;99.90;;;;;;4991769;28;20034;-72
2023/01/27 04:36:51;;;;;;;7.85;3.58;;;4.00;99.90;;;;;;4990672;28;20030;-71
2023/01/27 04:39:17;;;;;;;9.43;3.80;;;4.00;99.90;;;;;;4993440;28;20026;-72
2023/01/27 04:41:44;;;;;;;7.95;3.80;;;4.00;99.90;;;;;;4991080;28;20475;-72
2023/01/27 04:44:10;;;;;;;5.93;3.25;;;4.00;99.90;;;;;;4988019;28;20065;-71
2023/01/27 04:46:37;;;;;;;8.10;3.88;;;4.00;99.90;;;;;;5003612;28;20031;-72
2023/01/27 04:49:03;;;;;;;13.02;3.95;;;4.00;99.90;;;;;;5002297;28;20042;-72
2023/01/27 04:51:29;;;;;;;6.68;4.07;;;4.00;99.90;;;;;;5003710;28;20022;-72
2023/01/27 04:53:55;;;;;;;8.10;3.92;;;4.00;99.90;;;;;;5002644;28;20041;-73
2023/01/27 04:56:24;;;;;;;7.70;3.92;;;4.10;99.90;;;;;;5007247;28;20051;-73
2023/01/27 04:58:51;;;;;;;7.93;3.97;;;4.00;99.90;;;;;;5006050;28;20042;-72
2023/01/27 05:01:17;;;;;;;6.55;4.10;;;3.90;99.90;;;;;;5007478;28;20049;-73
2023/01/27 05:03:42;;;;;;;9.48;4.20;;;3.90;99.90;;;;;;5007425;28;20026;-73
2023/01/27 05:06:12;;;;;;;10.43;4.43;;;4.00;99.90;;;;;;5007093;28;20124;-71
2023/01/27 05:08:38;;;;;;;8.75;4.10;;;4.00;99.90;;;;;;5007025;28;20439;-72
2023/01/27 05:11:04;;;;;;;7.25;4.28;;;4.00;99.90;;;;;;5006933;28;20057;-72
2023/01/27 05:13:29;;;;;;;8.95;4.47;;;4.00;99.90;;;;;;5007146;28;20030;-73
2023/01/27 05:16:12;;;;;;;8.90;4.53;;;4.00;99.90;;;;;;5005001;28;20117;-72
2023/01/27 05:18:39;;;;;;;10.63;4.40;;;4.00;99.90;;;;;;5005616;28;20031;-73
2023/01/27 05:21:06;;;;;;;8.43;4.40;;;4.00;99.90;;;;;;5005558;28;20034;-72
2023/01/27 05:23:35;;;;;;;8.82;4.50;;;4.00;99.90;;;;;;5006899;28;20062;-73
2023/01/27 05:26:07;;;;;;;8.07;4.30;;;4.00;99.90;;;;;;5006669;28;20035;-72
2023/01/27 05:28:34;;;;;;;12.93;4.72;;;4.00;99.90;;;;;;5005482;28;20026;-73
2023/01/27 05:31:02;;;;;;;11.68;5.20;;;4.00;99.90;;;;;;5006682;28;20117;-72
2023/01/27 05:33:27;;;;;;;7.85;4.28;;;4.10;99.90;;;;;;5002776;28;20101;-73
2023/01/27 05:35:53;;;;;;;8.35;4.68;;;4.10;99.90;;;;;;5003895;28;20093;-73
2023/01/27 05:38:18;;;;;;;11.25;4.40;;;4.10;99.90;;;;;;5004754;28;20077;-72
2023/01/27 05:40:44;;;;;;;9.88;4.57;;;4.10;99.90;;;;;;5005960;28;20071;-71
2023/01/27 05:43:10;;;;;;;8.73;4.47;;;4.10;99.90;;;;;;5004513;28;20050;-72
2023/01/27 05:45:35;;;;;;;9.90;4.78;;;4.10;99.90;;;;;;5005869;28;20030;-72
2023/01/27 05:48:01;;;;;;;6.97;3.97;;;4.10;99.90;;;;;;5004605;28;20094;-71
2023/01/27 05:50:26;;;;;;;9.32;4.75;;;4.10;99.90;;;;;;5005780;28;20026;-71
2023/01/27 05:52:52;;;;;;;9.02;4.40;;;4.20;99.90;;;;;;5006826;28;20057;-72
2023/01/27 05:55:17;;;;;;;9.82;4.85;;;4.10;99.90;;;;;;5004760;28;20050;-74
2023/01/27 05:57:43;;;;;;;10.27;4.65;;;4.10;99.90;;;;;;5006516;28;20109;-72
2023/01/27 06:00:09;;;;;;;8.07;4.50;;;4.10;99.90;;;;;;5006387;28;20038;-72
2023/01/27 06:02:35;;;;;;;9.55;5.03;;;4.10;99.90;;;;;;5006229;28;20085;-73
2023/01/27 06:05:00;;;;;;;13.20;5.25;;;4.20;99.90;;;;;;5005555;28;20035;-73
2023/01/27 06:07:26;;;;;;;8.38;4.47;;;4.20;99.90;;;;;;5004413;28;20037;-72
2023/01/27 06:09:51;;;;;;;9.75;5.05;;;4.10;99.90;;;;;;5004700;28;20066;-72
2023/01/27 06:12:17;;;;;;;8.32;4.70;;;4.10;99.90;;;;;;5006361;28;20030;-73
2023/01/27 06:14:42;;;;;;;7.97;4.30;;;4.20;99.90;;;;;;5006766;28;20038;-73
2023/01/27 06:17:08;;;;;;;13.50;4.57;;;4.20;99.90;;;;;;5006222;28;20035;-72
2023/01/27 06:19:33;;;;;;;7.43;4.50;;;4.20;99.90;;;;;;5006237;28;20031;-73
2023/01/27 06:21:59;;;;;;;9.27;4.53;;;4.30;99.90;;;;;;5005120;28;20109;-73
2023/01/27 06:24:24;;;;;;;8.43;4.63;;;4.20;99.90;;;;;;5005762;28;20022;-73
2023/01/27 06:26:50;;;;;;;8.57;4.80;;;4.30;99.90;;;;;;5005110;28;20038;-73
2023/01/27 06:29:15;;;;;;;10.73;4.50;;;4.30;99.90;;;;;;5003652;28;20030;-72
2023/01/27 06:31:41;;;;;;;8.57;4.82;;;4.30;99.90;;;;;;4999999;28;20041;-72
2023/01/27 06:34:07;;;;;;;9.93;4.65;;;4.30;99.90;;;;;;4996878;28;20150;-73
2023/01/27 06:36:32;;;;;;;6.78;4.03;;;4.20;99.90;;;;;;4999163;28;20557;-73
2023/01/27 06:38:58;;;;;;;7.10;4.25;;;4.20;99.90;;;;;;5005489;28;20027;-72
2023/01/27 06:41:23;;;;;;;8.70;4.38;;;4.20;99.90;;;;;;4997354;28;20027;-72
2023/01/27 06:43:49;;;;;;;8.65;4.57;;;4.20;99.90;;;;;;4999955;28;20087;-75
2023/01/27 06:46:15;;;;;;;7.10;4.15;;;4.20;99.90;;;;;;4984765;28;20022;-73
2023/01/27 06:48:40;;;;;;;7.32;4.15;;;4.20;99.90;;;;;;4987902;28;20036;-72
2023/01/27 06:51:06;;;;;;;8.60;4.43;;;4.20;99.90;;;;;;5016662;28;20475;-72
2023/01/27 06:53:31;;;;;;;10.35;4.55;;;4.20;99.90;;;;;;5003419;28;20030;-73
2023/01/27 06:55:59;;;;;;;7.20;3.95;;;4.20;99.90;;;;;;5001235;28;20046;-73
2023/01/27 06:58:25;;;;;;;7.70;3.65;;;4.20;99.90;;;;;;5000940;28;20026;-72
2023/01/27 07:00:51;;;;;;;8.55;3.85;;;4.20;99.90;;;;;;5001422;28;20050;-72
2023/01/27 07:03:17;;;;;;;6.80;4.15;;;4.20;99.90;;;;;;5009273;28;20471;-73
2023/01/27 07:05:43;;;;;;;8.20;4.07;;;4.20;99.90;;;;;;5004985;28;20038;-73
2023/01/27 07:08:10;;;;;;;8.38;4.30;;;4.20;99.90;;;;;;5004574;28;20089;-72
2023/01/27 07:10:35;;;;;;;6.32;3.90;;;4.20;99.90;;;;;;5005262;28;20125;-73
2023/01/27 07:13:09;;;;;;;7.78;4.00;;;4.20;99.90;;;;;;5003365;28;20495;-72
2023/01/27 07:15:35;;;;;;;7.10;4.03;;;4.20;99.90;;;;;;5012624;28;20472;-73
2023/01/27 07:18:02;;;;;;;5.57;3.35;;;4.10;99.90;;;;;;5004688;28;20045;-72
2023/01/27 07:20:28;;;;;;;7.13;3.13;;;4.10;99.90;;;;;;5005226;28;20042;-73
2023/01/27 07:22:58;;;;;;;6.53;3.80;;;4.20;99.90;;;;;;5004021;28;20037;-73
2023/01/27 07:25:24;;;;;;;5.88;3.67;;;4.10;99.90;;;;;;5004302;28;20034;-73
2023/01/27 07:27:50;;;;;;;5.93;3.70;;;4.10;99.90;;;;;;5004924;28;20026;-75
2023/01/27 07:30:15;;;;;;;6.35;3.70;;;4.20;99.90;;;;;;5005502;28;20053;-71
2023/01/27 07:32:41;;;;;;;8.52;3.97;;;4.20;99.90;;;;;;5005368;28;20479;-72
2023/01/27 07:35:07;;;;;;;8.13;3.45;;;4.20;99.90;;;;;;4997549;28;20111;-74
2023/01/27 07:37:32;;;;;;;7.97;3.72;;;4.20;99.90;;;;;;5004843;28;20030;-71
2023/01/27 07:39:58;;;;;;;6.82;3.97;;;4.20;99.90;;;;;;5004852;28;20034;-72
2023/01/27 07:42:23;;;;;;;6.03;3.92;;;4.20;99.90;;;;;;5005075;28;20023;-74
2023/01/27 07:44:49;;;;;;;6.95;3.30;;;4.20;99.90;;;;;;5004931;28;20026;-73
2023/01/27 07:47:15;;;;;;;6.47;3.58;;;4.20;99.90;;;;;;5003458;28;20027;-72
2023/01/27 07:49:40;;;;;;;6.75;3.03;;;4.20;99.90;;;;;;4994682;28;20449;-73
2023/01/27 07:52:06;;;;;;;5.25;3.10;;;4.30;99.90;;;;;;4983748;28;20040;-73
2023/01/27 07:54:31;;;;;;;4.43;2.60;;;4.20;99.90;;;;;;5012105;28;20094;-72
2023/01/27 07:57:00;;;;;;;3.58;2.33;;;4.20;99.90;;;;;;5024127;28;20049;-74
2023/01/27 07:59:26;;;;;;;5.35;2.45;;;4.20;99.90;;;;;;5003612;28;20030;-74
2023/01/27 08:01:52;;;;;;;4.00;2.40;;;4.20;99.90;;;;;;5004816;28;20030;-73
2023/01/27 08:04:17;;;;;;;5.43;2.53;;;4.30;99.90;;;;;;5002295;28;20098;-73
2023/01/27 08:06:43;;;;;;;4.82;2.20;;;4.30;99.90;;;;;;5004446;28;20054;-73
2023/01/27 08:09:09;;;;;;;4.65;2.13;;;4.30;99.90;;;;;;5004452;28;20050;-73
2023/01/27 08:11:34;;;;;;;3.33;2.00;;;4.30;99.90;;;;;;5003243;28;20475;-73
2023/01/27 08:14:00;;;;;;;3.20;1.90;;;4.30;99.90;;;;;;5003034;28;20094;-72
2023/01/27 08:16:26;;;;;;;3.75;1.83;;;4.30;99.90;;;;;;4995810;28;20034;-74
2023/01/27 08:18:52;;;;;;;3.83;2.10;;;4.30;99.90;;;;;;5003112;28;20030;-74
2023/01/27 08:21:18;;;;;;;4.30;1.90;;;4.40;99.90;;;;;;4998788;28;20034;-72
2023/01/27 08:23:44;;;;;;;2.97;1.63;;;4.30;99.90;;;;;;4988885;28;20042;-73
2023/01/27 08:26:09;;;;;;;2.42;1.70;;;4.30;99.90;;;;;;5001516;28;20474;-72
2023/01/27 08:28:38;;;;;;;4.13;1.88;;;4.30;99.90;;;;;;5002450;28;20022;-73
2023/01/27 08:31:04;;;;;;;3.60;1.92;;;4.30;99.90;;;;;;5004630;28;20026;-72
2023/01/27 08:33:30;;;;;;;9.25;1.95;;;4.30;99.90;;;;;;5007417;28;20026;-73
2023/01/27 08:36:00;;;;;;;3.80;1.90;;;4.40;99.90;;;;;;5006185;28;20581;-74
2023/01/27 08:38:25;;;;;;;2.75;1.80;;;4.40;99.90;;;;;;5006076;28;20026;-74
2023/01/27 08:40:51;;;;;;;3.05;1.67;;;4.30;99.90;;;;;;5016925;28;20073;-73
2023/01/27 08:43:18;;;;;;;4.43;2.05;;;4.30;99.90;;;;;;5008436;28;20101;-72
2023/01/27 08:45:45;;;;;;;3.20;2.03;;;4.40;99.90;;;;;;5008622;28;20066;-73
2023/01/27 08:48:11;;;;;;;3.35;2.00;;;4.40;99.90;;;;;;5007854;28;20034;-72
2023/01/27 08:50:36;;;;;;;3.15;2.10;;;4.40;99.90;;;;;;5006053;28;20034;-73
2023/01/27 08:53:03;;;;;;;6.28;2.80;;;4.50;99.90;;;;;;5007904;28;20054;-73
2023/01/27 08:55:30;;;;;;;5.05;2.35;;;4.60;99.90;;;;;;5007419;28;20081;-72
2023/01/27 08:57:56;;;;;;;3.75;2.25;;;4.60;99.90;;;;;;5007811;28;20499;-72
2023/01/27 09:00:22;;;;;;;4.60;2.40;;;4.70;99.90;;;;;;5006754;28;20062;-74
2023/01/27 09:02:49;;;;;;;5.05;3.03;;;4.70;99.90;;;;;;5007139;28;20073;-74
2023/01/27 09:05:16;;;;;;;4.72;2.95;;;4.80;99.90;;;;;;5001913;28;20027;-73
2023/01/27 09:07:42;;;;;;;4.70;2.55;;;4.70;99.90;;;;;;4988704;28;20030;-72
2023/01/27 09:10:08;;;;;;;4.75;2.90;;;4.70;99.90;;;;;;4993475;28;20022;-73
2023/01/27 09:12:34;;;;;;;8.07;3.20;;;4.70;99.90;;;;;;5003229;28;20041;-74
2023/01/27 09:15:00;;;;;;;4.75;2.67;;;4.60;99.90;;;;;;5005307;28;20026;-74
2023/01/27 09:17:25;;;;;;;5.30;2.88;;;4.70;99.90;;;;;;5005912;28;20372;-75
2023/01/27 09:19:51;;;;;;;6.18;2.92;;;4.90;99.90;;;;;;5002930;28;20050;-75
2023/01/27 09:22:17;;;;;;;4.82;2.80;;;4.70;99.90;;;;;;5003750;28;20042;-75
2023/01/27 09:24:45;;;;;;;5.90;3.17;;;4.80;99.90;;;;;;4995152;28;20081;-75
2023/01/27 09:27:11;;;;;;;5.88;2.97;;;4.80;99.90;;;;;;5006190;28;20042;-74
2023/01/27 09:29:38;;;;;;;8.82;3.28;;;4.90;99.90;;;;;;5006155;28;20030;-74
2023/01/27 09:32:04;;;;;;;4.68;3.15;;;5.00;99.90;;;;;;5000572;28;20050;-74
2023/01/27 09:34:29;;;;;;;6.22;3.03;;;4.90;99.90;;;;;;5006695;28;20034;-73
2023/01/27 09:37:03;;;;;;;4.60;2.83;;;5.00;99.90;;;;;;5006383;28;20038;-75
2023/01/27 09:39:30;;;;;;;5.80;2.95;;;5.00;99.90;;;;;;4992680;28;20041;-73
2023/01/27 09:42:11;;;;;;;7.93;2.97;;;5.10;99.90;;;;;;5002379;28;20022;-73
2023/01/27 09:44:57;;;;;;;5.55;2.67;;;5.10;99.90;;;;;;5006498;28;20034;-72
2023/01/27 09:47:26;;;;;;;10.27;3.03;;;5.10;99.90;;;;;;5006178;28;20026;-73
2023/01/27 09:50:11;;;;;;;5.35;3.05;;;5.00;99.90;;;;;;5007007;28;20038;-73
2023/01/27 09:53:01;;;;;;;5.57;3.25;;;5.00;99.90;;;;;;4999470;28;20132;-73
2023/01/27 09:55:41;;;;;;;6.47;3.60;;;5.10;99.90;;;;;;5006511;28;20046;-72
2023/01/27 09:58:36;;;;;;;6.97;3.30;;;5.10;99.90;;;;;;5006907;28;20050;-74
2023/01/27 10:01:17;;;;;;;5.40;3.25;;;5.20;99.90;;;;;;5004442;28;20042;-72
2023/01/27 10:03:42;;;;;;;5.95;3.10;;;5.20;99.90;;;;;;4996947;28;20079;-72
2023/01/27 10:06:34;;;;;;;6.18;3.15;;;5.20;99.90;;;;;;4995403;28;20138;-72
2023/01/27 10:09:24;;;;;;;4.72;2.80;;;5.10;99.90;;;;;;4994460;28;20046;-73
2023/01/27 10:12:03;;;;;;;8.52;4.72;;;5.10;99.90;;;;;;5018397;28;20072;-73
2023/01/27 10:14:50;;;;;;;5.68;3.40;;;5.20;99.90;;;;;;5001759;28;20026;-73
2023/01/27 10:17:44;;;;;;;7.53;3.00;;;5.20;99.90;;;;;;5005490;28;20038;-73
2023/01/27 10:20:19;;;;;;;7.22;2.80;;;5.20;99.90;;;;;;5005944;28;20046;-74
2023/01/27 10:23:08;;;;;;;4.55;2.70;;;5.20;99.90;;;;;;5006360;28;20040;-74
2023/01/27 10:25:42;;;;;;;7.28;2.85;;;5.10;99.90;;;;;;5006132;28;20049;-75
2023/01/27 10:28:13;;;;;;;3.65;2.40;;;5.10;99.90;;;;;;5006732;28;20030;-71
2023/01/27 10:31:00;;;;;;;4.22;2.50;;;5.10;99.90;;;;;;5003721;28;20040;-73
2023/01/27 10:33:50;;;;;;;4.43;2.40;;;5.00;99.90;;;;;;4995386;28;20030;-73
2023/01/27 10:36:28;;;;;;;4.88;2.55;;;5.00;99.90;;;;;;5005519;28;20042;-74
2023/01/27 10:39:02;;;;;;;8.65;2.53;;;4.90;99.90;;;;;;4999780;28;20039;-73
2023/01/27 10:41:46;;;;;;;4.00;2.55;;;4.90;99.90;;;;;;5003670;28;20042;-73
2023/01/27 10:44:44;;;;;;;4.70;2.50;;;4.90;99.90;;;;;;4995535;28;20031;-72
2023/01/27 10:47:27;;;;;;;3.88;2.20;;;4.90;99.90;;;;;;5011810;28;20050;-73
2023/01/27 10:50:20;;;;;;;4.75;2.35;;;4.90;99.90;;;;;;5005539;28;20031;-71
2023/01/27 10:52:58;;;;;;;4.50;2.35;;;4.80;99.90;;;;;;4992761;28;20050;-73
2023/01/27 10:56:07;;;;;;;3.63;2.03;;;4.80;99.90;;;;;;5000054;28;20089;-73
2023/01/27 10:58:46;;;;;;;4.53;2.65;;;4.80;99.90;;;;;;5001624;28;20088;-73
2023/01/27 11:01:15;;;;;;;5.32;2.53;;;4.80;99.90;;;;;;5005433;28;20074;-72
2023/01/27 11:03:48;;;;;;;5.95;2.75;;;4.70;99.90;;;;;;5001319;28;20042;-72
2023/01/27 11:06:22;;;;;;;5.30;2.90;;;4.70;99.90;;;;;;5004899;28;20038;-73
2023/01/27 11:08:52;;;;;;;4.88;2.92;;;4.70;99.90;;;;;;5002848;28;20027;-73
2023/01/27 11:14:28;;;;;;;6.90;3.13;;;4.80;99.90;;;;;;5004770;28;20062;-73
2023/01/27 11:17:21;;;;;;;4.55;3.00;;;5.00;99.90;;;;;;5001172;28;20408;-73
2023/01/27 11:20:02;;;;;;;6.72;3.30;;;5.10;99.90;;;;;;4993690;28;20047;-74
2023/01/27 11:22:46;;;;;;;5.70;3.42;;;5.30;99.90;;;;;;4999730;28;20042;-73
2023/01/27 11:25:31;;;;;;;6.35;3.38;;;5.40;99.90;;;;;;5001459;28;20041;-73
2023/01/27 11:28:24;;;;;;;6.32;3.25;;;5.50;99.90;;;;;;5005122;28;20438;-73
2023/01/27 11:31:09;;;;;;;5.30;3.15;;;5.50;99.90;;;;;;5001074;28;20037;-72
2023/01/27 11:34:03;;;;;;;6.13;3.03;;;5.40;99.90;;;;;;5003869;28;20026;-73
2023/01/27 11:36:30;;;;;;;3.85;2.72;;;5.40;99.90;;;;;;5020194;28;20096;-72
2023/01/27 11:38:57;;;;;;;3.35;1.98;;;5.50;99.90;;;;;;5004368;28;20058;-72
2023/01/27 11:41:23;;;;;;;2.88;1.88;;;5.30;99.90;;;;;;5003865;28;20030;-73
2023/01/27 11:43:49;;;;;;;3.38;2.28;;;5.20;99.90;;;;;;5003608;28;20113;-72
2023/01/27 11:46:22;;;;;;;6.35;2.10;;;5.20;99.90;;;;;;5000455;28;20475;-72
2023/01/27 11:48:53;;;;;;;4.03;2.30;;;5.10;99.90;;;;;;5003028;28;20059;-71
2023/01/27 11:51:23;;;;;;;4.15;2.30;;;5.10;99.90;;;;;;5002250;28;20030;-73
2023/01/27 11:54:11;;;;;;;4.50;2.55;;;5.10;99.90;;;;;;5004402;28;20030;-73
2023/01/27 11:56:41;;;;;;;4.95;2.67;;;5.10;99.90;;;;;;4983607;28;20055;-75
2023/01/27 11:59:31;;;;;;;6.75;2.58;;;5.20;99.90;;;;;;4984929;28;20027;-73
2023/01/27 12:02:02;;;;;;;4.35;2.50;;;5.20;99.90;;;;;;4995180;28;20045;-74
2023/01/27 12:04:54;;;;;;;4.20;2.67;;;5.20;99.90;;;;;;5003380;28;20026;-72
2023/01/27 12:07:24;;;;;;;3.72;2.38;;;5.20;99.90;;;;;;5003936;28;20026;-73
2023/01/27 12:09:50;;;;;;;5.07;2.70;;;5.20;99.90;;;;;;5004682;28;20026;-73
2023/01/27 12:12:25;;;;;;;4.95;2.55;;;5.20;99.90;;;;;;5004864;28;20045;-73
2023/01/27 12:14:59;;;;;;;5.70;2.40;;;5.20;99.90;;;;;;5004579;28;20382;-73
2023/01/27 12:17:39;;;;;;;4.75;2.58;;;5.10;99.90;;;;;;5003567;28;20038;-73
2023/01/27 12:20:23;;;;;;;4.43;2.97;;;5.10;99.90;;;;;;5003108;28;20077;-73
2023/01/27 12:22:53;;;;;;;2.50;1.77;;;5.10;99.90;;;;;;5004183;28;20037;-74
2023/01/27 12:25:26;;;;;;;2.97;2.20;;;5.00;99.90;;;;;;4990688;28;20042;-73
2023/01/27 12:27:55;;;;;;;3.72;1.42;;;5.00;99.90;;;;;;4999551;28;20032;-71
2023/01/27 12:30:25;;;;;;;2.53;1.73;;;5.10;99.90;;;;;;5001044;28;20098;-72
2023/01/27 12:32:50;;;;;;;2.50;1.33;;;5.10;99.90;;;;;;5002350;28;20038;-73
2023/01/27 12:35:24;;;;;;;4.47;1.50;;;5.10;99.90;;;;;;5002358;28;20022;-74
2023/01/27 12:38:12;;;;;;;4.03;1.40;;;5.00;99.90;;;;;;5004811;28;20038;-74
2023/01/27 12:40:41;;;;;;;2.47;1.40;;;5.00;99.90;;;;;;5004541;28;20089;-72
2023/01/27 12:43:11;;;;;;;3.67;1.30;;;5.00;99.90;;;;;;5003430;28;20038;-71
2023/01/27 12:45:38;;;;;;;2.97;1.73;;;5.00;99.90;;;;;;5003332;28;20031;-72
2023/01/27 12:48:15;;;;;;;3.67;1.45;;;5.00;99.90;;;;;;5004681;28;20062;-73
2023/01/27 12:50:50;;;;;;;2.67;1.30;;;5.00;99.90;;;;;;5008006;28;20022;-72
2023/01/27 12:53:17;;;;;;;3.30;1.50;;;5.00;99.90;;;;;;5022681;28;20038;-73
2023/01/27 12:55:51;;;;;;;1.95;1.30;;;5.00;99.90;;;;;;5019140;28;20061;-72
2023/01/27 12:58:35;;;;;;;2.25;1.52;;;5.00;99.90;;;;;;5003040;28;20034;-74
2023/01/27 13:01:04;;;;;;;4.15;1.42;;;5.00;99.90;;;;;;5002182;28;20491;-73
2023/01/27 13:03:31;;;;;;;2.65;1.33;;;5.10;99.90;;;;;;5002696;28;20368;-71
2023/01/27 13:05:59;;;;;;;3.25;1.58;;;5.10;99.90;;;;;;5003979;28;20371;-72
2023/01/27 13:08:27;;;;;;;2.65;1.70;;;5.10;99.90;;;;;;5003854;28;20022;-75
2023/01/27 13:10:58;;;;;;;2.53;1.55;;;5.10;99.90;;;;;;5002346;28;20049;-73
2023/01/27 13:13:26;;;;;;;4.07;2.10;;;5.10;99.90;;;;;;5003861;28;20030;-74
2023/01/27 13:16:14;;;;;;;2.80;1.90;;;5.10;99.90;;;;;;5006091;28;20026;-75
2023/01/27 13:18:41;;;;;;;4.05;2.00;;;5.00;99.90;;;;;;5007270;28;20018;-74
2023/01/27 13:21:15;;;;;;;3.45;2.00;;;5.00;99.90;;;;;;5006812;28;20034;-73
2023/01/27 13:23:41;;;;;;;;;;;5.00;99.90;;;;;;5006263;28;20120;-72
2023/01/27 13:26:06;;;;;;;3.13;1.90;;;4.90;99.90;;;;;;5006744;28;19925;-73
2023/01/27 13:28:55;;;;;;;3.65;2.13;;;5.00;99.90;;;;;;5007142;28;20034;-73
2023/01/27 13:31:53;;;;;;;2.67;1.85;;;4.90;99.90;;;;;;5005713;28;20031;-73
2023/01/27 13:34:52;;;;;;;3.50;2.22;;;4.90;99.90;;;;;;5006008;28;20030;-74
2023/01/27 13:37:34;;;;;;;3.45;2.17;;;4.90;99.90;;;;;;5010201;28;20042;-73
2023/01/27 13:40:17;;;;;;;3.65;2.15;;;4.90;99.90;;;;;;5006671;28;20049;-74
2023/01/27 13:43:01;;;;;;;6.38;2.20;;;4.90;99.90;;;;;;5005239;28;20031;-73
2023/01/27 13:45:44;;;;;;;;;;;4.90;99.90;;;;;;5007190;28;20023;-73